AQQ10 IFIS: Internet Flight Information System
logo dgac
Martes 27 de Febrero del 2024
Buscar por aerodromo o helipuerto
Ingrese nombre de aeródromo, localidad o designador OACI:
METAR del 27-02-2024 a las 23:00 UTC
Para mayor información visite www.meteochile.gob.cl
METAR SCON 272300Z AUTO VRB04KT 9999 -RA FEW013/// SCT020/// OVC028/// 15/14 Q1011
Viento: dirección variable, velocidad 4 nudos
Visibilidad: 10 km o más
Débil Lluvia
Nubes: Escasa nubosidad a 1300 pies sobre el nivel del aeródromo, Tipo de nubes no disponible
Nubes: Nubosidad parcial a 2000 pies sobre el nivel del aeródromo, Tipo de nubes no disponible
Nubes: Cubierto a 2800 pies sobre el nivel del aeródromo, Tipo de nubes no disponible
Temperatura: 15 °C
Rocío: 14 °C
Humedad_relativa: 94%
Presión: 1011 hPa
METAR del 27-02-2024 a las 22:00 UTC
Para mayor información visite www.meteochile.gob.cl
METAR SCON 272200Z AUTO 09006KT 9999 FEW010/// SCT020/// OVC044/// 15/14 Q1011
Viento: dirección 090 grados, velocidad 6 nudos
Visibilidad: 10 km o más
Nubes: Escasa nubosidad a 1000 pies sobre el nivel del aeródromo, Tipo de nubes no disponible
Nubes: Nubosidad parcial a 2000 pies sobre el nivel del aeródromo, Tipo de nubes no disponible
Nubes: Cubierto a 4400 pies sobre el nivel del aeródromo, Tipo de nubes no disponible
Temperatura: 15 °C
Rocío: 14 °C
Humedad_relativa: 94%
Presión: 1011 hPa
METAR del 27-02-2024 a las 21:00 UTC
Para mayor información visite www.meteochile.gob.cl
METAR SCON 272100Z AUTO 07007KT 9999 FEW016/// BKN038/// BKN045/// 16/15 Q1011
Viento: dirección 070 grados, velocidad 7 nudos
Visibilidad: 10 km o más
Nubes: Escasa nubosidad a 1600 pies sobre el nivel del aeródromo, Tipo de nubes no disponible
Nubes: Nublado a 3800 pies sobre el nivel del aeródromo, Tipo de nubes no disponible
Nubes: Nublado a 4500 pies sobre el nivel del aeródromo, Tipo de nubes no disponible
Temperatura: 16 °C
Rocío: 15 °C
Humedad_relativa: 94%
Presión: 1011 hPa
METAR del 27-02-2024 a las 20:00 UTC
Para mayor información visite www.meteochile.gob.cl
METAR SCON 272000Z 14003KT 9999 FEW010 BKN025 15/15 Q1011
Viento: dirección 140 grados, velocidad 3 nudos
Visibilidad: 10 km o más
Nubes: Escasa nubosidad a 1000 pies sobre el nivel del aeródromo
Nubes: Nublado a 2500 pies sobre el nivel del aeródromo
Temperatura: 15 °C
Rocío: 15 °C
Humedad_relativa: 100%
Presión: 1011 hPa
METAR del 27-02-2024 a las 19:00 UTC
Para mayor información visite www.meteochile.gob.cl
METAR SCON 271900Z 25010KT 230V290 1000 SHRA OVC005 15/14 Q1011
Viento: dirección 250 grados, velocidad 10 nudos
Viento con dirección variable entre 230 y 290 grados
Visibilidad: 1000 metros
ChubascosLluvia
Nubes: Cubierto a 500 pies sobre el nivel del aeródromo
Temperatura: 15 °C
Rocío: 14 °C
Humedad_relativa: 94%
Presión: 1011 hPa
METAR del 27-02-2024 a las 18:00 UTC
Para mayor información visite www.meteochile.gob.cl
METAR SCON 271800Z 35009KT 320V020 3000 DZ OVC020 16/15 Q1011
Viento: dirección 350 grados, velocidad 9 nudos
Viento con dirección variable entre 320 y 020 grados
Visibilidad: 3000 metros
LLovizna
Nubes: Cubierto a 2000 pies sobre el nivel del aeródromo
Temperatura: 16 °C
Rocío: 15 °C
Humedad_relativa: 94%
Presión: 1011 hPa
METAR del 27-02-2024 a las 17:00 UTC
Para mayor información visite www.meteochile.gob.cl
METAR SCON 271700Z 36009KT 320V030 4000 DZ SCT010 BKN020 OVC025 17/15 Q1011
Viento: dirección 360 grados, velocidad 9 nudos
Viento con dirección variable entre 320 y 030 grados
Visibilidad: 4000 metros
LLovizna
Nubes: Nubosidad parcial a 1000 pies sobre el nivel del aeródromo
Nubes: Nublado a 2000 pies sobre el nivel del aeródromo
Nubes: Cubierto a 2500 pies sobre el nivel del aeródromo
Temperatura: 17 °C
Rocío: 15 °C
Humedad_relativa: 88%
Presión: 1011 hPa
METAR del 27-02-2024 a las 15:00 UTC
Para mayor información visite www.meteochile.gob.cl
METAR SCON 271500Z 36010KT 320V040 5000 -DZ OVC025 15/13 Q1012
Viento: dirección 360 grados, velocidad 10 nudos
Viento con dirección variable entre 320 y 040 grados
Visibilidad: 5000 metros
Débil LLovizna
Nubes: Cubierto a 2500 pies sobre el nivel del aeródromo
Temperatura: 15 °C
Rocío: 13 °C
Humedad_relativa: 88%
Presión: 1012 hPa
SPECI del 27-02-2024 a las 14:12 UTC
Para mayor información visite www.meteochile.gob.cl
SPECI SCON 271412Z 01007KT 330V070 7000 FEW010 OVC030 14/13 Q1012
Viento: dirección 010 grados, velocidad 7 nudos
Viento con dirección variable entre 330 y 070 grados
Visibilidad: 7000 metros
Nubes: Escasa nubosidad a 1000 pies sobre el nivel del aeródromo
Nubes: Cubierto a 3000 pies sobre el nivel del aeródromo
Temperatura: 14 °C
Rocío: 13 °C
Humedad_relativa: 94%
Presión: 1012 hPa
METAR del 27-02-2024 a las 14:00 UTC
Para mayor información visite www.meteochile.gob.cl
METAR SCON 271400Z 02008KT 340V050 2000 +RA OVC015 14/13 Q1012
Viento: dirección 020 grados, velocidad 8 nudos
Viento con dirección variable entre 340 y 050 grados
Visibilidad: 2000 metros
Fuertes Lluvia
Nubes: Cubierto a 1500 pies sobre el nivel del aeródromo
Temperatura: 14 °C
Rocío: 13 °C
Humedad_relativa: 94%
Presión: 1012 hPa